UNO367H VQPR-VTSM
Flight info
| Callsign | UNO367H |
|---|---|
| Flight time | 2h 56m |
| Altitude | 33000 |
| Route | BOGOP R598 SDP W6 BASEX W3 DAC G463 BGO V7 DWI M626 NONEL |
| Aircraft | A321/M-SDE3FGHIRWY/LB1 |
Departure
| Time | 2026-04-21 18:48 |
|---|---|
| Airport | Paro International Airport (VQPR) |
Arrival
| Time | 2026-04-21 21:45 |
|---|---|
| Airport | Samui International Airport (VTSM) |
| Time | Latitude | Longitude | Altitude | Speed | Heading |
|---|---|---|---|---|---|
| 2026-04-21 17:52 | 27.40603 | 89.42131 | 7276 ft | 0 kts | 240° |
| 2026-04-21 18:35 | 27.40603 | 89.42132 | 7276 ft | 2 kts | 240° |
| 2026-04-21 18:36 | 27.40614 | 89.42157 | 7274 ft | 4 kts | 250° |
| 2026-04-21 18:36 | 27.40622 | 89.42182 | 7278 ft | 1 kts | 252° |
| 2026-04-21 18:36 | 27.40622 | 89.42183 | 7278 ft | 1 kts | 252° |
| 2026-04-21 18:38 | 27.40621 | 89.42182 | 7276 ft | 2 kts | 252° |
| 2026-04-21 18:38 | 27.40638 | 89.42160 | 7278 ft | 6 kts | 333° |
| 2026-04-21 18:38 | 27.40686 | 89.42134 | 7279 ft | 9 kts | 329° |
| 2026-04-21 18:38 | 27.40721 | 89.42111 | 7279 ft | 0 kts | 330° |
| 2026-04-21 18:40 | 27.40722 | 89.42111 | 7279 ft | 0 kts | 330° |
| 2026-04-21 18:41 | 27.40737 | 89.42101 | 7277 ft | 5 kts | 330° |
| 2026-04-21 18:41 | 27.40762 | 89.42085 | 7277 ft | 8 kts | 330° |
| 2026-04-21 18:41 | 27.40775 | 89.42077 | 7277 ft | 0 kts | 332° |
| 2026-04-21 18:44 | 27.40780 | 89.42074 | 7277 ft | 3 kts | 332° |
| 2026-04-21 18:44 | 27.40805 | 89.42071 | 7278 ft | 4 kts | 14° |
| 2026-04-21 18:44 | 27.40817 | 89.42081 | 7280 ft | 2 kts | 41° |
| 2026-04-21 18:45 | 27.40834 | 89.42104 | 7284 ft | 4 kts | 53° |
| 2026-04-21 18:45 | 27.40872 | 89.42125 | 7285 ft | 10 kts | 358° |
| 2026-04-21 18:45 | 27.40949 | 89.42077 | 7287 ft | 6 kts | 329° |
| 2026-04-21 18:45 | 27.40994 | 89.42047 | 7287 ft | 9 kts | 330° |
| 2026-04-21 18:46 | 27.41058 | 89.42007 | 7288 ft | 12 kts | 330° |
| 2026-04-21 18:46 | 27.41131 | 89.41959 | 7289 ft | 8 kts | 329° |
| 2026-04-21 18:46 | 27.41169 | 89.41912 | 7289 ft | 5 kts | 306° |
| 2026-04-21 18:46 | 27.41187 | 89.41895 | 7289 ft | 1 kts | 4° |
| 2026-04-21 18:47 | 27.41188 | 89.41896 | 7289 ft | 0 kts | 12° |
| 2026-04-21 18:47 | 27.41198 | 89.41919 | 7290 ft | 4 kts | 103° |
| 2026-04-21 18:47 | 27.41138 | 89.41958 | 7289 ft | 24 kts | 152° |
| 2026-04-21 18:47 | 27.40768 | 89.42192 | 7287 ft | 96 kts | 150° |
| 2026-04-21 18:48 | 27.39992 | 89.42683 | 7268 ft | 157 kts | 151° |
| 2026-04-21 18:48 | 27.38983 | 89.43351 | 7764 ft | 166 kts | 148° |
| 2026-04-21 18:48 | 27.38209 | 89.44309 | 8470 ft | 173 kts | 117° |
| 2026-04-21 18:48 | 27.37920 | 89.45645 | 9127 ft | 178 kts | 94° |
| 2026-04-21 18:49 | 27.37555 | 89.46963 | 9819 ft | 176 kts | 126° |
| 2026-04-21 18:49 | 27.36586 | 89.47739 | 10256 ft | 178 kts | 168° |
| 2026-04-21 18:49 | 27.35738 | 89.47802 | 10414 ft | 186 kts | 185° |
| 2026-04-21 18:49 | 27.33963 | 89.47862 | 10747 ft | 204 kts | 165° |
| 2026-04-21 18:50 | 27.32745 | 89.48765 | 11028 ft | 219 kts | 131° |
| 2026-04-21 18:50 | 27.32068 | 89.50369 | 11176 ft | 240 kts | 104° |
| 2026-04-21 18:50 | 27.31628 | 89.52212 | 11445 ft | 250 kts | 115° |
| 2026-04-21 18:50 | 27.30639 | 89.53860 | 11607 ft | 261 kts | 138° |
| 2026-04-21 18:51 | 27.29059 | 89.54950 | 11567 ft | 279 kts | 163° |
| 2026-04-21 18:51 | 27.27059 | 89.55193 | 11611 ft | 302 kts | 188° |
| 2026-04-21 18:51 | 27.24923 | 89.54798 | 11914 ft | 319 kts | 191° |
| 2026-04-21 18:51 | 27.22645 | 89.54720 | 12180 ft | 340 kts | 171° |
| 2026-04-21 18:52 | 27.20372 | 89.55710 | 12321 ft | 364 kts | 152° |
| 2026-04-21 18:52 | 27.18108 | 89.57085 | 12750 ft | 373 kts | 156° |
| 2026-04-21 18:52 | 27.15691 | 89.58209 | 13308 ft | 379 kts | 163° |
| 2026-04-21 18:52 | 27.13165 | 89.59175 | 13866 ft | 386 kts | 166° |
| 2026-04-21 18:53 | 27.10590 | 89.60079 | 14352 ft | 389 kts | 167° |
| 2026-04-21 18:53 | 27.07995 | 89.60990 | 14800 ft | 394 kts | 166° |
| 2026-04-21 18:53 | 27.05365 | 89.61950 | 15337 ft | 399 kts | 166° |
| 2026-04-21 18:53 | 27.02721 | 89.62962 | 15927 ft | 403 kts | 165° |
| 2026-04-21 18:54 | 27.00071 | 89.64011 | 16481 ft | 407 kts | 165° |
| 2026-04-21 18:54 | 26.97348 | 89.64851 | 16970 ft | 404 kts | 178° |
| 2026-04-21 18:54 | 26.94567 | 89.64832 | 17532 ft | 398 kts | 193° |
| 2026-04-21 18:54 | 26.91816 | 89.64376 | 18085 ft | 401 kts | 194° |
| 2026-04-21 18:55 | 26.89982 | 89.64064 | 18379 ft | 403 kts | 194° |
| 2026-04-21 18:55 | 26.86252 | 89.63420 | 19002 ft | 407 kts | 194° |
| 2026-04-21 18:55 | 26.83441 | 89.62935 | 19523 ft | 410 kts | 193° |
| 2026-04-21 18:55 | 26.80619 | 89.62452 | 20030 ft | 412 kts | 193° |
| 2026-04-21 18:56 | 26.77818 | 89.61977 | 20527 ft | 414 kts | 193° |
| 2026-04-21 18:56 | 26.74961 | 89.61495 | 20965 ft | 417 kts | 192° |
| 2026-04-21 18:56 | 26.72082 | 89.61011 | 21398 ft | 419 kts | 192° |
| 2026-04-21 18:56 | 26.69194 | 89.60528 | 21844 ft | 421 kts | 192° |
| 2026-04-21 18:57 | 26.66281 | 89.60041 | 22281 ft | 424 kts | 192° |
| 2026-04-21 18:57 | 26.63361 | 89.59550 | 22693 ft | 426 kts | 192° |
| 2026-04-21 18:57 | 26.60419 | 89.59054 | 23100 ft | 429 kts | 192° |
| 2026-04-21 18:57 | 26.57461 | 89.58555 | 23483 ft | 431 kts | 192° |
| 2026-04-21 18:58 | 26.54492 | 89.58055 | 23859 ft | 432 kts | 192° |
| 2026-04-21 18:58 | 26.51514 | 89.57555 | 24256 ft | 433 kts | 192° |
| 2026-04-21 18:58 | 26.48566 | 89.56905 | 24624 ft | 430 kts | 199° |
| 2026-04-21 18:58 | 26.45782 | 89.55743 | 24990 ft | 427 kts | 209° |
| 2026-04-21 18:59 | 26.43208 | 89.54113 | 25383 ft | 425 kts | 215° |
| 2026-04-21 18:59 | 26.40694 | 89.52386 | 25783 ft | 425 kts | 215° |
| 2026-04-21 18:59 | 26.38165 | 89.50658 | 26186 ft | 426 kts | 215° |
| 2026-04-21 18:59 | 26.35633 | 89.48936 | 26581 ft | 427 kts | 215° |
| 2026-04-21 19:00 | 26.33134 | 89.47154 | 26962 ft | 425 kts | 220° |
| 2026-04-21 19:00 | 26.30875 | 89.45074 | 27339 ft | 423 kts | 224° |
| 2026-04-21 19:00 | 26.28640 | 89.42938 | 27732 ft | 424 kts | 224° |
| 2026-04-21 19:00 | 26.26402 | 89.40799 | 28129 ft | 424 kts | 224° |
| 2026-04-21 19:01 | 26.24161 | 89.38663 | 28552 ft | 423 kts | 224° |
| 2026-04-21 19:01 | 26.21928 | 89.36535 | 29008 ft | 422 kts | 225° |
| 2026-04-21 19:01 | 26.19705 | 89.34417 | 29544 ft | 418 kts | 225° |
| 2026-04-21 19:01 | 26.17502 | 89.32323 | 30071 ft | 414 kts | 225° |
| 2026-04-21 19:02 | 26.15324 | 89.30256 | 30565 ft | 409 kts | 225° |
| 2026-04-21 19:02 | 26.13168 | 89.28211 | 31067 ft | 405 kts | 225° |
| 2026-04-21 19:02 | 26.11040 | 89.26191 | 31575 ft | 400 kts | 226° |
| 2026-04-21 19:02 | 26.08964 | 89.24218 | 32082 ft | 395 kts | 226° |
| 2026-04-21 19:03 | 26.06895 | 89.22184 | 32561 ft | 389 kts | 228° |
| 2026-04-21 19:03 | 26.04943 | 89.20189 | 32679 ft | 383 kts | 229° |
| 2026-04-21 19:03 | 26.03013 | 89.18179 | 32702 ft | 378 kts | 229° |
| 2026-04-21 19:04 | 25.99196 | 89.14193 | 32702 ft | 375 kts | 229° |
| 2026-04-21 19:04 | 25.95367 | 89.10246 | 32702 ft | 375 kts | 228° |
| 2026-04-21 19:05 | 25.91508 | 89.06301 | 32701 ft | 379 kts | 228° |
| 2026-04-21 19:05 | 25.87627 | 89.02335 | 32700 ft | 379 kts | 228° |
| 2026-04-21 19:06 | 25.83737 | 88.98373 | 32704 ft | 379 kts | 228° |
| 2026-04-21 19:06 | 25.79720 | 88.94554 | 32705 ft | 387 kts | 218° |
| 2026-04-21 19:06 | 25.77228 | 88.93324 | 32704 ft | 402 kts | 204° |
| 2026-04-21 19:07 | 25.74426 | 88.92902 | 32695 ft | 422 kts | 189° |
| 2026-04-21 19:07 | 25.71454 | 88.93457 | 32694 ft | 449 kts | 172° |
| 2026-04-21 19:07 | 25.68534 | 88.94834 | 32691 ft | 458 kts | 167° |
| 2026-04-21 19:08 | 25.62673 | 88.97781 | 32657 ft | 460 kts | 166° |
| 2026-04-21 19:08 | 25.56832 | 89.00710 | 32668 ft | 461 kts | 167° |
| 2026-04-21 19:09 | 25.50971 | 89.03628 | 32680 ft | 462 kts | 167° |
| 2026-04-21 19:09 | 25.45089 | 89.06542 | 32698 ft | 463 kts | 167° |
| 2026-04-21 19:10 | 25.39237 | 89.09437 | 32697 ft | 463 kts | 167° |
| 2026-04-21 19:10 | 25.33324 | 89.12368 | 32705 ft | 463 kts | 167° |
| 2026-04-21 19:11 | 25.27442 | 89.15281 | 32702 ft | 463 kts | 167° |
| 2026-04-21 19:11 | 25.21599 | 89.18164 | 32714 ft | 463 kts | 167° |
| 2026-04-21 19:12 | 25.16680 | 89.20596 | 32710 ft | 463 kts | 167° |
| 2026-04-21 19:12 | 25.09804 | 89.23983 | 32702 ft | 463 kts | 167° |
| 2026-04-21 19:13 | 25.03906 | 89.26883 | 32703 ft | 464 kts | 167° |
| 2026-04-21 19:13 | 24.98050 | 89.29761 | 32687 ft | 464 kts | 166° |
| 2026-04-21 19:14 | 24.92147 | 89.32663 | 32696 ft | 465 kts | 166° |
| 2026-04-21 19:14 | 24.86223 | 89.35568 | 32702 ft | 466 kts | 166° |
| 2026-04-21 19:15 | 24.80296 | 89.38473 | 32706 ft | 466 kts | 166° |
| 2026-04-21 19:15 | 24.74376 | 89.41376 | 32724 ft | 466 kts | 166° |
| 2026-04-21 19:16 | 24.68445 | 89.44280 | 32710 ft | 466 kts | 166° |
| 2026-04-21 19:16 | 24.62524 | 89.47179 | 32732 ft | 466 kts | 166° |
| 2026-04-21 19:17 | 24.53644 | 89.51510 | 32741 ft | 465 kts | 166° |
| 2026-04-21 19:17 | 24.47721 | 89.54406 | 32746 ft | 465 kts | 166° |
| 2026-04-21 19:18 | 24.41800 | 89.57295 | 32750 ft | 465 kts | 166° |
| 2026-04-21 19:18 | 24.35943 | 89.60377 | 32724 ft | 475 kts | 156° |
| 2026-04-21 19:19 | 24.33265 | 89.62570 | 32738 ft | 487 kts | 146° |
| 2026-04-21 19:19 | 24.30918 | 89.65310 | 32758 ft | 500 kts | 135° |
| 2026-04-21 19:19 | 24.26918 | 89.71607 | 32764 ft | 503 kts | 132° |
| 2026-04-21 19:20 | 24.22963 | 89.77871 | 32767 ft | 503 kts | 133° |
| 2026-04-21 19:20 | 24.18967 | 89.84150 | 32766 ft | 502 kts | 133° |
| 2026-04-21 19:21 | 24.14963 | 89.90432 | 32764 ft | 502 kts | 133° |
| 2026-04-21 19:21 | 24.10963 | 89.96709 | 32766 ft | 502 kts | 133° |
| 2026-04-21 19:22 | 24.06963 | 90.02969 | 32771 ft | 502 kts | 133° |
| 2026-04-21 19:22 | 24.02964 | 90.09238 | 32757 ft | 502 kts | 133° |
| 2026-04-21 19:23 | 23.98979 | 90.15489 | 32770 ft | 501 kts | 133° |
| 2026-04-21 19:23 | 23.95660 | 90.20682 | 32777 ft | 501 kts | 133° |
| 2026-04-21 19:24 | 23.91631 | 90.26955 | 32783 ft | 500 kts | 133° |
| 2026-04-21 19:24 | 23.87633 | 90.33177 | 32798 ft | 500 kts | 133° |
| 2026-04-21 19:25 | 23.83614 | 90.39380 | 32791 ft | 497 kts | 136° |
| 2026-04-21 19:25 | 23.81370 | 90.42130 | 32790 ft | 486 kts | 144° |
| 2026-04-21 19:25 | 23.78804 | 90.44558 | 32798 ft | 480 kts | 149° |
| 2026-04-21 19:26 | 23.73680 | 90.49159 | 32772 ft | 480 kts | 148° |
| 2026-04-21 19:26 | 23.68500 | 90.53829 | 32793 ft | 479 kts | 148° |
| 2026-04-21 19:27 | 23.63406 | 90.58425 | 32795 ft | 478 kts | 148° |
| 2026-04-21 19:27 | 23.58277 | 90.63037 | 32796 ft | 477 kts | 148° |
| 2026-04-21 19:28 | 23.53152 | 90.67636 | 32794 ft | 477 kts | 148° |
| 2026-04-21 19:28 | 23.48021 | 90.72234 | 32796 ft | 477 kts | 148° |
| 2026-04-21 19:29 | 23.42893 | 90.76831 | 32794 ft | 477 kts | 148° |
| 2026-04-21 19:29 | 23.37764 | 90.81428 | 32780 ft | 478 kts | 148° |
| 2026-04-21 19:30 | 23.32634 | 90.86020 | 32794 ft | 478 kts | 148° |
| 2026-04-21 19:30 | 23.27501 | 90.90624 | 32800 ft | 478 kts | 148° |
| 2026-04-21 19:31 | 23.22368 | 90.95225 | 32804 ft | 478 kts | 148° |
| 2026-04-21 19:31 | 23.17238 | 90.99815 | 32804 ft | 478 kts | 148° |
| 2026-04-21 19:32 | 23.12132 | 91.04458 | 32799 ft | 478 kts | 148° |
| 2026-04-21 19:32 | 23.07056 | 91.09122 | 32793 ft | 478 kts | 147° |
| 2026-04-21 19:33 | 23.01982 | 91.13772 | 32801 ft | 477 kts | 147° |
| 2026-04-21 19:33 | 22.96898 | 91.18407 | 32793 ft | 477 kts | 147° |
| 2026-04-21 19:34 | 22.91816 | 91.23023 | 32797 ft | 477 kts | 147° |
| 2026-04-21 19:34 | 22.86736 | 91.27641 | 32798 ft | 477 kts | 147° |
| 2026-04-21 19:35 | 22.79105 | 91.34583 | 32802 ft | 477 kts | 147° |
| 2026-04-21 19:36 | 22.74033 | 91.39190 | 32782 ft | 477 kts | 148° |
| 2026-04-21 19:36 | 22.68932 | 91.43813 | 32788 ft | 478 kts | 148° |
| 2026-04-21 19:37 | 22.63833 | 91.48443 | 32791 ft | 478 kts | 148° |
| 2026-04-21 19:37 | 22.58724 | 91.53065 | 32795 ft | 479 kts | 148° |
| 2026-04-21 19:38 | 22.53605 | 91.57683 | 32794 ft | 479 kts | 148° |
| 2026-04-21 19:38 | 22.49346 | 91.61523 | 32798 ft | 479 kts | 148° |
| 2026-04-21 19:39 | 22.43359 | 91.66932 | 32795 ft | 479 kts | 147° |
| 2026-04-21 19:39 | 22.38244 | 91.71542 | 32825 ft | 478 kts | 148° |
| 2026-04-21 19:40 | 22.33130 | 91.76140 | 32816 ft | 478 kts | 148° |
| 2026-04-21 19:40 | 22.28015 | 91.80728 | 32815 ft | 477 kts | 148° |
| 2026-04-21 19:41 | 22.22912 | 91.85302 | 32816 ft | 477 kts | 148° |
| 2026-04-21 19:41 | 22.17807 | 91.89872 | 32817 ft | 477 kts | 148° |
| 2026-04-21 19:42 | 22.12729 | 91.94416 | 32811 ft | 477 kts | 148° |
| 2026-04-21 19:42 | 22.07607 | 91.98984 | 32818 ft | 477 kts | 148° |
| 2026-04-21 19:43 | 22.02491 | 92.03543 | 32820 ft | 477 kts | 148° |
| 2026-04-21 19:43 | 21.97373 | 92.08100 | 32834 ft | 477 kts | 148° |
| 2026-04-21 19:44 | 21.92252 | 92.12640 | 32824 ft | 477 kts | 148° |
| 2026-04-21 19:44 | 21.87088 | 92.17130 | 32832 ft | 476 kts | 148° |
| 2026-04-21 19:45 | 21.81918 | 92.21579 | 32830 ft | 476 kts | 149° |
| 2026-04-21 19:45 | 21.76747 | 92.26038 | 32815 ft | 476 kts | 148° |
| 2026-04-21 19:46 | 21.71589 | 92.30501 | 32836 ft | 476 kts | 148° |
| 2026-04-21 19:46 | 21.66427 | 92.34975 | 32840 ft | 477 kts | 147° |
| 2026-04-21 19:47 | 21.61441 | 92.39727 | 32839 ft | 480 kts | 143° |
| 2026-04-21 19:47 | 21.56620 | 92.44711 | 32847 ft | 481 kts | 142° |
| 2026-04-21 19:48 | 21.51780 | 92.49683 | 32846 ft | 480 kts | 143° |
| 2026-04-21 19:48 | 21.46892 | 92.54576 | 32852 ft | 480 kts | 144° |
| 2026-04-21 19:49 | 21.41991 | 92.59424 | 32839 ft | 479 kts | 144° |
| 2026-04-21 19:49 | 21.37121 | 92.64247 | 32844 ft | 479 kts | 143° |
| 2026-04-21 19:50 | 21.33028 | 92.68314 | 32841 ft | 478 kts | 143° |
| 2026-04-21 19:50 | 21.27330 | 92.73981 | 32845 ft | 479 kts | 143° |
| 2026-04-21 19:51 | 21.22477 | 92.78808 | 32839 ft | 479 kts | 143° |
| 2026-04-21 19:51 | 21.17580 | 92.83663 | 32843 ft | 480 kts | 143° |
| 2026-04-21 19:52 | 21.12683 | 92.88511 | 32850 ft | 480 kts | 143° |
| 2026-04-21 19:52 | 21.07781 | 92.93359 | 32840 ft | 480 kts | 143° |
| 2026-04-21 19:53 | 21.02879 | 92.98198 | 32851 ft | 480 kts | 143° |
| 2026-04-21 19:53 | 20.97971 | 93.03047 | 32854 ft | 480 kts | 143° |
| 2026-04-21 19:54 | 20.93077 | 93.07888 | 32848 ft | 479 kts | 143° |
| 2026-04-21 19:54 | 20.88172 | 93.12723 | 32844 ft | 479 kts | 143° |
| 2026-04-21 19:55 | 20.83265 | 93.17551 | 32845 ft | 479 kts | 143° |
| 2026-04-21 19:55 | 20.78362 | 93.22378 | 32856 ft | 479 kts | 143° |
| 2026-04-21 19:56 | 20.73456 | 93.27210 | 32843 ft | 479 kts | 143° |
| 2026-04-21 19:56 | 20.68555 | 93.32022 | 32846 ft | 478 kts | 143° |
| 2026-04-21 19:57 | 20.63655 | 93.36822 | 32869 ft | 478 kts | 143° |
| 2026-04-21 19:57 | 20.58756 | 93.41619 | 32867 ft | 477 kts | 143° |
| 2026-04-21 19:58 | 20.53869 | 93.46411 | 32859 ft | 477 kts | 143° |
| 2026-04-21 19:58 | 20.48984 | 93.51192 | 32873 ft | 477 kts | 143° |
| 2026-04-21 19:59 | 20.44086 | 93.55983 | 32869 ft | 477 kts | 143° |
| 2026-04-21 19:59 | 20.39183 | 93.60775 | 32858 ft | 478 kts | 143° |
| 2026-04-21 20:00 | 20.34286 | 93.65556 | 32863 ft | 477 kts | 143° |
| 2026-04-21 20:00 | 20.29418 | 93.70298 | 32858 ft | 477 kts | 143° |
| 2026-04-21 20:01 | 20.24521 | 93.75062 | 32858 ft | 476 kts | 143° |
| 2026-04-21 20:01 | 20.20428 | 93.79045 | 32855 ft | 476 kts | 143° |
| 2026-04-21 20:02 | 20.15537 | 93.83811 | 32845 ft | 476 kts | 143° |
| 2026-04-21 20:02 | 20.10645 | 93.88567 | 32845 ft | 476 kts | 143° |
| 2026-04-21 20:03 | 20.05748 | 93.93314 | 32846 ft | 476 kts | 142° |
| 2026-04-21 20:03 | 20.00891 | 93.98033 | 32867 ft | 476 kts | 142° |
| 2026-04-21 20:04 | 19.96010 | 94.02769 | 32865 ft | 475 kts | 142° |
| 2026-04-21 20:04 | 19.91122 | 94.07500 | 32865 ft | 475 kts | 142° |
| 2026-04-21 20:05 | 19.86244 | 94.12225 | 32874 ft | 475 kts | 142° |
| 2026-04-21 20:05 | 19.81367 | 94.16941 | 32869 ft | 474 kts | 142° |
| 2026-04-21 20:06 | 19.76480 | 94.21655 | 32865 ft | 474 kts | 143° |
| 2026-04-21 20:06 | 19.71597 | 94.26362 | 32846 ft | 474 kts | 142° |
| 2026-04-21 20:07 | 19.66717 | 94.31070 | 32854 ft | 474 kts | 142° |
| 2026-04-21 20:07 | 19.61834 | 94.35775 | 32854 ft | 473 kts | 142° |
| 2026-04-21 20:08 | 19.56958 | 94.40466 | 32850 ft | 473 kts | 142° |
| 2026-04-21 20:08 | 19.52074 | 94.45168 | 32843 ft | 473 kts | 142° |
| 2026-04-21 20:09 | 19.47203 | 94.49860 | 32853 ft | 473 kts | 142° |
| 2026-04-21 20:09 | 19.42324 | 94.54540 | 32838 ft | 473 kts | 142° |
| 2026-04-21 20:10 | 19.37466 | 94.59190 | 32817 ft | 473 kts | 142° |
| 2026-04-21 20:10 | 19.32585 | 94.63869 | 32843 ft | 473 kts | 142° |
| 2026-04-21 20:11 | 19.27701 | 94.68550 | 32848 ft | 473 kts | 142° |
| 2026-04-21 20:11 | 19.22814 | 94.73195 | 32827 ft | 472 kts | 143° |
| 2026-04-21 20:12 | 19.17864 | 94.77763 | 32832 ft | 472 kts | 143° |
| 2026-04-21 20:12 | 19.12904 | 94.82305 | 32832 ft | 471 kts | 143° |
| 2026-04-21 20:13 | 19.07960 | 94.86856 | 32832 ft | 471 kts | 143° |
| 2026-04-21 20:13 | 19.03015 | 94.91434 | 32814 ft | 472 kts | 142° |
| 2026-04-21 20:14 | 18.98077 | 94.95997 | 32815 ft | 471 kts | 142° |
| 2026-04-21 20:14 | 18.93141 | 95.00552 | 32815 ft | 471 kts | 142° |
| 2026-04-21 20:15 | 18.88203 | 95.05108 | 32801 ft | 471 kts | 142° |
| 2026-04-21 20:15 | 18.83263 | 95.09647 | 32803 ft | 471 kts | 142° |
| 2026-04-21 20:16 | 18.78321 | 95.14196 | 32805 ft | 471 kts | 142° |
| 2026-04-21 20:16 | 18.73383 | 95.18744 | 32796 ft | 471 kts | 142° |
| 2026-04-21 20:17 | 18.68440 | 95.23283 | 32801 ft | 471 kts | 142° |
| 2026-04-21 20:17 | 18.63498 | 95.27814 | 32803 ft | 471 kts | 142° |
| 2026-04-21 20:18 | 18.59395 | 95.31576 | 32807 ft | 470 kts | 142° |
| 2026-04-21 20:18 | 18.53661 | 95.36840 | 32787 ft | 470 kts | 142° |
| 2026-04-21 20:19 | 18.48722 | 95.41359 | 32788 ft | 470 kts | 142° |
| 2026-04-21 20:19 | 18.43780 | 95.45883 | 32785 ft | 471 kts | 142° |
| 2026-04-21 20:20 | 18.38906 | 95.50506 | 32795 ft | 472 kts | 141° |
| 2026-04-21 20:20 | 18.34059 | 95.55190 | 32788 ft | 472 kts | 140° |
| 2026-04-21 20:21 | 18.29212 | 95.59852 | 32794 ft | 472 kts | 141° |
| 2026-04-21 20:21 | 18.24342 | 95.64485 | 32807 ft | 472 kts | 141° |
| 2026-04-21 20:22 | 18.19480 | 95.69109 | 32813 ft | 472 kts | 141° |
| 2026-04-21 20:22 | 18.12182 | 95.76064 | 32804 ft | 472 kts | 140° |
| 2026-04-21 20:23 | 18.07313 | 95.80695 | 32805 ft | 472 kts | 140° |
| 2026-04-21 20:23 | 18.02441 | 95.85319 | 32803 ft | 472 kts | 140° |
| 2026-04-21 20:24 | 17.97561 | 95.89954 | 32801 ft | 472 kts | 140° |
| 2026-04-21 20:24 | 17.92685 | 95.94583 | 32815 ft | 472 kts | 140° |
| 2026-04-21 20:25 | 17.87804 | 95.99197 | 32816 ft | 472 kts | 140° |
| 2026-04-21 20:25 | 17.82927 | 96.03813 | 32816 ft | 471 kts | 140° |
| 2026-04-21 20:26 | 17.78094 | 96.08388 | 32813 ft | 471 kts | 140° |
| 2026-04-21 20:26 | 17.73231 | 96.12993 | 32806 ft | 471 kts | 140° |
| 2026-04-21 20:27 | 17.68357 | 96.17589 | 32807 ft | 471 kts | 140° |
| 2026-04-21 20:27 | 17.63484 | 96.22194 | 32806 ft | 472 kts | 140° |
| 2026-04-21 20:28 | 17.58606 | 96.26803 | 32817 ft | 472 kts | 140° |
| 2026-04-21 20:28 | 17.53723 | 96.31406 | 32818 ft | 471 kts | 140° |
| 2026-04-21 20:29 | 17.48843 | 96.36006 | 32819 ft | 471 kts | 140° |
| 2026-04-21 20:29 | 17.43971 | 96.40596 | 32813 ft | 471 kts | 140° |
| 2026-04-21 20:30 | 17.39087 | 96.45195 | 32813 ft | 471 kts | 140° |
| 2026-04-21 20:30 | 17.34233 | 96.49751 | 32815 ft | 471 kts | 140° |
| 2026-04-21 20:31 | 17.28876 | 96.53594 | 32807 ft | 466 kts | 155° |
| 2026-04-21 20:31 | 17.23096 | 96.56656 | 32804 ft | 466 kts | 155° |
| 2026-04-21 20:32 | 17.17314 | 96.59725 | 32810 ft | 466 kts | 155° |
| 2026-04-21 20:32 | 17.11533 | 96.62805 | 32813 ft | 466 kts | 155° |
| 2026-04-21 20:33 | 17.05752 | 96.65897 | 32823 ft | 467 kts | 155° |
| 2026-04-21 20:33 | 16.99963 | 96.68981 | 32829 ft | 467 kts | 155° |
| 2026-04-21 20:34 | 16.94168 | 96.72064 | 32830 ft | 468 kts | 155° |
| 2026-04-21 20:34 | 16.88365 | 96.75147 | 32826 ft | 467 kts | 155° |
| 2026-04-21 20:35 | 16.82574 | 96.78217 | 32831 ft | 467 kts | 155° |
| 2026-04-21 20:35 | 16.76772 | 96.81296 | 32830 ft | 467 kts | 155° |
| 2026-04-21 20:36 | 16.70987 | 96.84364 | 32823 ft | 467 kts | 155° |
| 2026-04-21 20:36 | 16.65190 | 96.87438 | 32821 ft | 467 kts | 154° |
| 2026-04-21 20:37 | 16.59395 | 96.90506 | 32822 ft | 467 kts | 155° |
| 2026-04-21 20:37 | 16.53595 | 96.93577 | 32819 ft | 467 kts | 154° |
| 2026-04-21 20:38 | 16.47790 | 96.96642 | 32823 ft | 467 kts | 154° |
| 2026-04-21 20:38 | 16.41987 | 96.99711 | 32825 ft | 468 kts | 154° |
| 2026-04-21 20:39 | 16.36179 | 97.02779 | 32830 ft | 468 kts | 154° |
| 2026-04-21 20:39 | 16.30359 | 97.05841 | 32831 ft | 468 kts | 154° |
| 2026-04-21 20:40 | 16.24551 | 97.08901 | 32832 ft | 468 kts | 154° |
| 2026-04-21 20:40 | 16.18737 | 97.11970 | 32838 ft | 468 kts | 155° |
| 2026-04-21 20:41 | 16.12927 | 97.15034 | 32840 ft | 468 kts | 155° |
| 2026-04-21 20:41 | 16.07132 | 97.18089 | 32840 ft | 467 kts | 155° |
| 2026-04-21 20:42 | 16.02304 | 97.20629 | 32844 ft | 467 kts | 155° |
| 2026-04-21 20:42 | 15.95522 | 97.24192 | 32842 ft | 467 kts | 155° |
| 2026-04-21 20:43 | 15.90706 | 97.26716 | 32840 ft | 467 kts | 155° |
| 2026-04-21 20:43 | 15.83964 | 97.30257 | 32840 ft | 467 kts | 155° |
| 2026-04-21 20:44 | 15.79149 | 97.32784 | 32839 ft | 466 kts | 155° |
| 2026-04-21 20:44 | 15.73354 | 97.35821 | 32838 ft | 466 kts | 155° |
| 2026-04-21 20:45 | 15.67559 | 97.38848 | 32842 ft | 466 kts | 155° |
| 2026-04-21 20:45 | 15.61765 | 97.41882 | 32842 ft | 466 kts | 155° |
| 2026-04-21 20:46 | 15.55970 | 97.44920 | 32843 ft | 466 kts | 155° |
| 2026-04-21 20:46 | 15.50183 | 97.47947 | 32844 ft | 466 kts | 155° |
| 2026-04-21 20:47 | 15.44395 | 97.50969 | 32846 ft | 465 kts | 155° |
| 2026-04-21 20:47 | 15.38621 | 97.53990 | 32844 ft | 464 kts | 155° |
| 2026-04-21 20:48 | 15.32846 | 97.57001 | 32843 ft | 464 kts | 155° |
| 2026-04-21 20:48 | 15.27080 | 97.60013 | 32841 ft | 464 kts | 155° |
| 2026-04-21 20:49 | 15.21310 | 97.63023 | 32841 ft | 464 kts | 155° |
| 2026-04-21 20:49 | 15.15543 | 97.66024 | 32841 ft | 464 kts | 155° |
| 2026-04-21 20:50 | 15.09777 | 97.69033 | 32844 ft | 464 kts | 155° |
| 2026-04-21 20:50 | 15.04004 | 97.72033 | 32844 ft | 464 kts | 155° |
| 2026-04-21 20:51 | 14.98228 | 97.75030 | 32848 ft | 464 kts | 155° |
| 2026-04-21 20:51 | 14.92489 | 97.78018 | 32851 ft | 465 kts | 155° |
| 2026-04-21 20:52 | 14.86717 | 97.81024 | 32853 ft | 465 kts | 155° |
| 2026-04-21 20:52 | 14.80942 | 97.84023 | 32855 ft | 464 kts | 155° |
| 2026-04-21 20:53 | 14.75160 | 97.87019 | 32855 ft | 464 kts | 155° |
| 2026-04-21 20:53 | 14.69394 | 97.90004 | 32859 ft | 463 kts | 155° |
| 2026-04-21 20:54 | 14.63642 | 97.92985 | 32856 ft | 463 kts | 155° |
| 2026-04-21 20:54 | 14.57885 | 97.95975 | 32856 ft | 463 kts | 155° |
| 2026-04-21 20:55 | 14.52133 | 97.98951 | 32844 ft | 463 kts | 155° |
| 2026-04-21 20:55 | 14.46367 | 98.01930 | 32837 ft | 463 kts | 155° |
| 2026-04-21 20:56 | 14.40647 | 98.04890 | 32845 ft | 463 kts | 154° |
| 2026-04-21 20:56 | 14.34871 | 98.07873 | 32846 ft | 463 kts | 154° |
| 2026-04-21 20:57 | 14.29113 | 98.10846 | 32847 ft | 463 kts | 154° |
| 2026-04-21 20:57 | 14.23359 | 98.13815 | 32846 ft | 462 kts | 154° |
| 2026-04-21 20:58 | 14.17607 | 98.16781 | 32844 ft | 462 kts | 154° |
| 2026-04-21 20:58 | 14.11850 | 98.19750 | 32852 ft | 462 kts | 154° |
| 2026-04-21 20:59 | 14.06103 | 98.22730 | 32852 ft | 462 kts | 154° |
| 2026-04-21 20:59 | 14.00385 | 98.25745 | 32858 ft | 462 kts | 153° |
| 2026-04-21 21:00 | 13.94663 | 98.28766 | 32857 ft | 461 kts | 154° |
| 2026-04-21 21:00 | 13.88983 | 98.31747 | 32854 ft | 461 kts | 154° |
| 2026-04-21 21:01 | 13.83265 | 98.34741 | 32862 ft | 461 kts | 154° |
| 2026-04-21 21:01 | 13.77547 | 98.37733 | 32836 ft | 461 kts | 154° |
| 2026-04-21 21:02 | 13.71816 | 98.40733 | 32834 ft | 463 kts | 154° |
| 2026-04-21 21:02 | 13.66074 | 98.43735 | 32847 ft | 463 kts | 153° |
| 2026-04-21 21:03 | 13.60328 | 98.46735 | 32849 ft | 463 kts | 153° |
| 2026-04-21 21:03 | 13.54587 | 98.49738 | 32866 ft | 463 kts | 153° |
| 2026-04-21 21:04 | 13.48853 | 98.52741 | 32862 ft | 463 kts | 153° |
| 2026-04-21 21:04 | 13.43125 | 98.55770 | 32862 ft | 462 kts | 153° |
| 2026-04-21 21:05 | 13.37412 | 98.58812 | 32858 ft | 462 kts | 153° |
| 2026-04-21 21:05 | 13.31696 | 98.61843 | 32857 ft | 462 kts | 152° |
| 2026-04-21 21:06 | 13.25986 | 98.64858 | 32869 ft | 461 kts | 152° |
| 2026-04-21 21:06 | 13.20290 | 98.67873 | 32857 ft | 460 kts | 152° |
| 2026-04-21 21:07 | 13.14600 | 98.70881 | 32852 ft | 460 kts | 153° |
| 2026-04-21 21:07 | 13.08913 | 98.73885 | 32835 ft | 460 kts | 152° |
| 2026-04-21 21:08 | 13.03212 | 98.76901 | 32825 ft | 461 kts | 152° |
| 2026-04-21 21:08 | 12.97541 | 98.79900 | 32835 ft | 462 kts | 152° |
| 2026-04-21 21:09 | 12.91834 | 98.82913 | 32846 ft | 461 kts | 152° |
| 2026-04-21 21:09 | 12.86121 | 98.85924 | 32846 ft | 461 kts | 152° |
| 2026-04-21 21:10 | 12.80417 | 98.88930 | 32853 ft | 461 kts | 152° |
| 2026-04-21 21:10 | 12.74717 | 98.91940 | 32848 ft | 461 kts | 152° |
| 2026-04-21 21:11 | 12.69019 | 98.94944 | 32855 ft | 461 kts | 152° |
| 2026-04-21 21:11 | 12.63312 | 98.97948 | 32856 ft | 461 kts | 152° |
| 2026-04-21 21:12 | 12.57608 | 99.00950 | 32862 ft | 461 kts | 152° |
| 2026-04-21 21:12 | 12.51904 | 99.03939 | 32863 ft | 460 kts | 152° |
| 2026-04-21 21:13 | 12.46210 | 99.06933 | 32861 ft | 460 kts | 152° |
| 2026-04-21 21:13 | 12.40508 | 99.09932 | 32866 ft | 460 kts | 152° |
| 2026-04-21 21:14 | 12.34815 | 99.12925 | 32858 ft | 460 kts | 152° |
| 2026-04-21 21:14 | 12.29143 | 99.15903 | 32857 ft | 461 kts | 152° |
| 2026-04-21 21:15 | 12.23437 | 99.18902 | 32858 ft | 461 kts | 152° |
| 2026-04-21 21:15 | 12.17727 | 99.21893 | 32857 ft | 461 kts | 152° |
| 2026-04-21 21:16 | 12.12021 | 99.24878 | 32864 ft | 460 kts | 152° |
| 2026-04-21 21:16 | 12.06324 | 99.27859 | 32862 ft | 460 kts | 152° |
| 2026-04-21 21:17 | 12.00630 | 99.30841 | 32855 ft | 460 kts | 152° |
| 2026-04-21 21:17 | 11.94939 | 99.33827 | 32854 ft | 460 kts | 152° |
| 2026-04-21 21:18 | 11.89243 | 99.36810 | 32853 ft | 460 kts | 152° |
| 2026-04-21 21:18 | 11.83543 | 99.39789 | 32860 ft | 460 kts | 152° |
| 2026-04-21 21:19 | 11.77842 | 99.42764 | 32864 ft | 460 kts | 152° |
| 2026-04-21 21:19 | 11.72138 | 99.45735 | 32862 ft | 459 kts | 152° |
| 2026-04-21 21:20 | 11.66444 | 99.48705 | 32860 ft | 460 kts | 152° |
| 2026-04-21 21:20 | 11.60756 | 99.51687 | 32856 ft | 460 kts | 151° |
| 2026-04-21 21:21 | 11.55059 | 99.54695 | 32848 ft | 461 kts | 151° |
| 2026-04-21 21:21 | 11.49364 | 99.57702 | 32850 ft | 461 kts | 151° |
| 2026-04-21 21:22 | 11.43659 | 99.60698 | 32849 ft | 461 kts | 152° |
| 2026-04-21 21:22 | 11.37945 | 99.63696 | 32829 ft | 462 kts | 151° |
| 2026-04-21 21:23 | 11.32206 | 99.66713 | 32810 ft | 466 kts | 151° |
| 2026-04-21 21:23 | 11.26426 | 99.69756 | 31851 ft | 473 kts | 151° |
| 2026-04-21 21:24 | 11.23480 | 99.71306 | 30981 ft | 478 kts | 151° |
| 2026-04-21 21:24 | 11.20532 | 99.72853 | 30342 ft | 476 kts | 151° |
| 2026-04-21 21:24 | 11.17596 | 99.74389 | 29755 ft | 473 kts | 150° |
| 2026-04-21 21:24 | 11.14684 | 99.75914 | 29130 ft | 468 kts | 150° |
| 2026-04-21 21:25 | 11.11800 | 99.77420 | 28552 ft | 462 kts | 151° |
| 2026-04-21 21:25 | 11.08950 | 99.78888 | 27944 ft | 458 kts | 151° |
| 2026-04-21 21:25 | 11.06116 | 99.80333 | 27337 ft | 453 kts | 151° |
| 2026-04-21 21:25 | 11.03310 | 99.81758 | 26737 ft | 449 kts | 152° |
| 2026-04-21 21:26 | 11.00521 | 99.83173 | 26149 ft | 445 kts | 152° |
| 2026-04-21 21:26 | 10.97803 | 99.84552 | 25569 ft | 442 kts | 152° |
| 2026-04-21 21:26 | 10.95076 | 99.85938 | 24765 ft | 435 kts | 151° |
| 2026-04-21 21:26 | 10.92383 | 99.87313 | 23935 ft | 430 kts | 151° |
| 2026-04-21 21:27 | 10.89722 | 99.88673 | 23085 ft | 425 kts | 152° |
| 2026-04-21 21:27 | 10.87901 | 99.89486 | 22568 ft | 422 kts | 159° |
| 2026-04-21 21:27 | 10.85114 | 99.90366 | 22124 ft | 416 kts | 161° |
| 2026-04-21 21:27 | 10.81474 | 99.91507 | 21476 ft | 411 kts | 161° |
| 2026-04-21 21:28 | 10.79641 | 99.92089 | 21151 ft | 409 kts | 161° |
| 2026-04-21 21:28 | 10.76048 | 99.93234 | 20483 ft | 406 kts | 161° |
| 2026-04-21 21:28 | 10.70695 | 99.94931 | 19456 ft | 401 kts | 161° |
| 2026-04-21 21:29 | 10.68896 | 99.95498 | 19114 ft | 399 kts | 161° |
| 2026-04-21 21:29 | 10.66250 | 99.96329 | 18588 ft | 397 kts | 161° |
| 2026-04-21 21:29 | 10.63613 | 99.97155 | 18064 ft | 396 kts | 161° |
| 2026-04-21 21:29 | 10.60985 | 99.97979 | 17491 ft | 393 kts | 161° |
| 2026-04-21 21:30 | 10.58396 | 99.98792 | 16978 ft | 388 kts | 161° |
| 2026-04-21 21:30 | 10.55832 | 99.99596 | 16462 ft | 384 kts | 161° |
| 2026-04-21 21:30 | 10.53289 | 100.00395 | 15952 ft | 379 kts | 161° |
| 2026-04-21 21:30 | 10.50782 | 100.01186 | 15442 ft | 376 kts | 161° |
| 2026-04-21 21:31 | 10.48293 | 100.01971 | 14946 ft | 372 kts | 161° |
| 2026-04-21 21:31 | 10.45833 | 100.02745 | 14447 ft | 369 kts | 162° |
| 2026-04-21 21:31 | 10.43393 | 100.03513 | 13950 ft | 365 kts | 162° |
| 2026-04-21 21:31 | 10.40969 | 100.04273 | 13432 ft | 362 kts | 162° |
| 2026-04-21 21:32 | 10.38571 | 100.05021 | 12915 ft | 358 kts | 162° |
| 2026-04-21 21:32 | 10.36237 | 100.05750 | 12444 ft | 354 kts | 162° |
| 2026-04-21 21:32 | 10.33897 | 100.06481 | 11971 ft | 349 kts | 161° |
| 2026-04-21 21:32 | 10.31587 | 100.07203 | 11497 ft | 346 kts | 161° |
| 2026-04-21 21:33 | 10.29300 | 100.07921 | 11036 ft | 342 kts | 161° |
| 2026-04-21 21:33 | 10.27037 | 100.08635 | 10577 ft | 339 kts | 161° |
| 2026-04-21 21:33 | 10.24799 | 100.09338 | 10160 ft | 334 kts | 162° |
| 2026-04-21 21:33 | 10.22617 | 100.10019 | 10049 ft | 320 kts | 162° |
| 2026-04-21 21:34 | 10.20527 | 100.10672 | 9929 ft | 308 kts | 162° |
| 2026-04-21 21:34 | 10.18511 | 100.11305 | 9711 ft | 300 kts | 162° |
| 2026-04-21 21:34 | 10.16529 | 100.11928 | 9349 ft | 297 kts | 161° |
| 2026-04-21 21:34 | 10.14553 | 100.12550 | 8963 ft | 296 kts | 162° |
| 2026-04-21 21:35 | 10.12589 | 100.13167 | 8565 ft | 295 kts | 162° |
| 2026-04-21 21:35 | 10.10630 | 100.13782 | 8171 ft | 294 kts | 162° |
| 2026-04-21 21:35 | 10.08679 | 100.14394 | 7825 ft | 292 kts | 162° |
| 2026-04-21 21:35 | 10.06741 | 100.15000 | 7444 ft | 291 kts | 162° |
| 2026-04-21 21:36 | 10.04801 | 100.15554 | 7066 ft | 290 kts | 169° |
| 2026-04-21 21:36 | 10.02802 | 100.15642 | 6748 ft | 288 kts | 184° |
| 2026-04-21 21:36 | 10.00820 | 100.15314 | 6416 ft | 286 kts | 188° |
| 2026-04-21 21:36 | 9.98893 | 100.14974 | 6129 ft | 283 kts | 188° |
| 2026-04-21 21:37 | 9.96937 | 100.14636 | 5847 ft | 280 kts | 188° |
| 2026-04-21 21:37 | 9.95051 | 100.14311 | 5581 ft | 279 kts | 188° |
| 2026-04-21 21:37 | 9.93139 | 100.13985 | 5314 ft | 277 kts | 188° |
| 2026-04-21 21:37 | 9.91241 | 100.13660 | 5051 ft | 275 kts | 189° |
| 2026-04-21 21:38 | 9.89361 | 100.13337 | 4781 ft | 274 kts | 189° |
| 2026-04-21 21:38 | 9.87486 | 100.13017 | 4520 ft | 272 kts | 189° |
| 2026-04-21 21:38 | 9.85624 | 100.12700 | 4324 ft | 271 kts | 189° |
| 2026-04-21 21:38 | 9.83771 | 100.12383 | 4077 ft | 270 kts | 189° |
| 2026-04-21 21:39 | 9.81925 | 100.12066 | 3817 ft | 267 kts | 189° |
| 2026-04-21 21:39 | 9.80107 | 100.11754 | 3639 ft | 261 kts | 189° |
| 2026-04-21 21:39 | 9.78351 | 100.11452 | 3533 ft | 250 kts | 189° |
| 2026-04-21 21:39 | 9.76680 | 100.11164 | 3432 ft | 238 kts | 189° |
| 2026-04-21 21:40 | 9.75104 | 100.10893 | 3336 ft | 222 kts | 189° |
| 2026-04-21 21:40 | 9.73620 | 100.10614 | 3241 ft | 211 kts | 195° |
| 2026-04-21 21:40 | 9.72325 | 100.10080 | 3073 ft | 192 kts | 204° |
| 2026-04-21 21:40 | 9.71153 | 100.09539 | 2862 ft | 178 kts | 204° |
| 2026-04-21 21:41 | 9.70060 | 100.09035 | 2680 ft | 167 kts | 204° |
| 2026-04-21 21:41 | 9.69018 | 100.08558 | 2524 ft | 162 kts | 204° |
| 2026-04-21 21:41 | 9.68002 | 100.08092 | 2380 ft | 160 kts | 204° |
| 2026-04-21 21:41 | 9.66993 | 100.07629 | 2222 ft | 159 kts | 204° |
| 2026-04-21 21:42 | 9.65983 | 100.07165 | 2047 ft | 159 kts | 204° |
| 2026-04-21 21:42 | 9.64981 | 100.06704 | 1838 ft | 157 kts | 204° |
| 2026-04-21 21:42 | 9.64002 | 100.06255 | 1648 ft | 155 kts | 204° |
| 2026-04-21 21:42 | 9.63044 | 100.05816 | 1460 ft | 146 kts | 203° |
| 2026-04-21 21:43 | 9.62096 | 100.05555 | 1279 ft | 143 kts | 184° |
| 2026-04-21 21:43 | 9.61089 | 100.05635 | 1088 ft | 143 kts | 175° |
| 2026-04-21 21:43 | 9.60114 | 100.05731 | 912 ft | 143 kts | 175° |
| 2026-04-21 21:43 | 9.59129 | 100.05827 | 714 ft | 142 kts | 174° |
| 2026-04-21 21:44 | 9.58142 | 100.05922 | 532 ft | 143 kts | 175° |
| 2026-04-21 21:44 | 9.57136 | 100.06021 | 334 ft | 146 kts | 174° |
| 2026-04-21 21:44 | 9.56134 | 100.06121 | 199 ft | 145 kts | 175° |
| 2026-04-21 21:44 | 9.55140 | 100.06209 | 65 ft | 134 kts | 175° |
| 2026-04-21 21:45 | 9.54366 | 100.06288 | 53 ft | 84 kts | 174° |
| 2026-04-21 21:45 | 9.53950 | 100.06331 | 53 ft | 34 kts | 174° |
| 2026-04-21 21:45 | 9.53858 | 100.06330 | 53 ft | 7 kts | 231° |
| 2026-04-21 21:45 | 9.53879 | 100.06317 | 53 ft | 7 kts | 358° |
| 2026-04-21 21:46 | 9.53975 | 100.06317 | 53 ft | 20 kts | 0° |
| 2026-04-21 21:46 | 9.54125 | 100.06310 | 53 ft | 22 kts | 355° |
| 2026-04-21 21:46 | 9.54286 | 100.06294 | 49 ft | 24 kts | 354° |
| 2026-04-21 21:46 | 9.54456 | 100.06278 | 53 ft | 25 kts | 354° |
| 2026-04-21 21:47 | 9.54632 | 100.06260 | 53 ft | 26 kts | 355° |
| 2026-04-21 21:47 | 9.54816 | 100.06243 | 53 ft | 27 kts | 355° |
| 2026-04-21 21:47 | 9.54926 | 100.06232 | 49 ft | 5 kts | 353° |
| 2026-04-21 21:47 | 9.54967 | 100.06228 | 50 ft | 7 kts | 355° |
| 2026-04-21 21:48 | 9.55011 | 100.06255 | 52 ft | 9 kts | 71° |
| 2026-04-21 21:48 | 9.55026 | 100.06303 | 51 ft | 7 kts | 40° |
| 2026-04-21 21:48 | 9.55066 | 100.06306 | 53 ft | 2 kts | 352° |
| 2026-04-21 21:48 | 9.55089 | 100.06302 | 53 ft | 5 kts | 352° |
| 2026-04-21 21:49 | 9.55120 | 100.06313 | 51 ft | 5 kts | 60° |
| 2026-04-21 21:49 | 9.55122 | 100.06334 | 51 ft | 1 kts | 85° |